This is the latest recevied weather packets stored in our database for station/object N4DWK. If no packets are shown the sender has not sent any weather packets the latest 1 day(s).
| Time | Temp. | Humidity | Pressure | Rain* | Wind** | Luminosity | Snow |
|---|---|---|---|---|---|---|---|
| 1778095206 | 18.89° C | 88% | 1009.5 hPa | 0.25 mm | - | 86 W/m² | - |
| 1778094906 | 18.89° C | 89% | 1009.7 hPa | 0.25 mm | - | 81 W/m² | - |
| 1778094606 | 18.89° C | 89% | 1009.9 hPa | 0.25 mm | - | 84 W/m² | - |
| 1778094007 | 18.89° C | 90% | 1010.3 hPa | 0 mm | - | 76 W/m² | - |
| 1778092806 | 18.33° C | 90% | 1010.2 hPa | 0 mm | - | 62 W/m² | - |
| 1778091306 | 18.89° C | 89% | 1010.8 hPa | 0 mm | - | 46 W/m² | - |
| 1778091006 | 18.89° C | 89% | 1010.9 hPa | 0 mm | - | 53 W/m² | - |
| 1778090106 | 18.89° C | 89% | 1011 hPa | 0 mm | - | 84 W/m² | - |
| 1778089806 | 18.89° C | 89% | 1011.1 hPa | 0 mm | - | 74 W/m² | - |
| 1778089206 | 18.33° C | 89% | 1011 hPa | 0 mm | - | 90 W/m² | - |
| 1778088906 | 18.33° C | 89% | 1011 hPa | 0 mm | - | 102 W/m² | - |
| 1778088306 | 18.33° C | 90% | 1011 hPa | 0 mm | - | 83 W/m² | - |
| 1778088007 | 18.33° C | 90% | 1011 hPa | 0 mm | - | 83 W/m² | - |
| 1778087705 | 18.33° C | 90% | 1011 hPa | 0 mm | - | 60 W/m² | - |
| 1778087106 | 17.78° C | 91% | 1011 hPa | 0 mm | - | 60 W/m² | - |
| 1778085906 | 17.78° C | 91% | 1011.4 hPa | 0 mm | - | 69 W/m² | - |
| 1778085606 | 17.78° C | 91% | 1011.5 hPa | 0 mm | - | 65 W/m² | - |
| 1778083505 | 17.22° C | 92% | 1011.2 hPa | 0.25 mm | - | 63 W/m² | - |
| 1778082006 | 17.22° C | 92% | 1011.6 hPa | 0.25 mm | - | 54 W/m² | - |
| 1778079305 | 16.67° C | 92% | 1012.1 hPa | 3.3 mm | - | 76 W/m² | - |
| 1778078706 | 16.67° C | 90% | 1012.1 hPa | 3.56 mm | - | 63 W/m² | - |
| 1778077505 | 17.22° C | 88% | 1012.5 hPa | 1.52 mm | - | 21 W/m² | - |
| 1778076905 | 17.78° C | 86% | 1012.4 hPa | 0.76 mm | - | 26 W/m² | - |
| 1778074506 | 18.89° C | 77% | 1012.2 hPa | 0 mm | - | 28 W/m² | - |
| 1778073307 | 18.89° C | 76% | 1012 hPa | 0 mm | - | 30 W/m² | - |
* Rain latest hour (hover to see other rain measurements)
** Current wind speed in m/s (hover to see current wind gust speed)